DatumTemp.
Ø
Temp.
Max.
Temp.
Min.
Luftfeuchtigkeit
Ø
Luftdruck
Max.
Luftdruck
Min.
RegenmengeWind
Ø
Wind
Max.
Solarstrahlung
Ø
Solarstrahlung
Max.
UV Index
Max.
1. Nov 2020 um 00:00 Uhr6.4°C6.4°C6.4°C97%1023.4hPa1023.3hPa0.0mm0.0km/h0.0km/h0.0W/qm0.0W/qm0.0
1. Nov 2020 um 00:05 Uhr6.4°C6.4°C6.4°C97%1023.5hPa1023.3hPa0.0mm0.0km/h0.0km/h0.0W/qm0.0W/qm0.0
1. Nov 2020 um 00:10 Uhr6.4°C6.5°C6.4°C97%1023.6hPa1023.5hPa0.0mm0.0km/h0.0km/h0.0W/qm0.0W/qm0.0
1. Nov 2020 um 00:15 Uhr6.6°C6.6°C6.5°C97%1023.6hPa1023.4hPa0.0mm0.0km/h0.0km/h0.0W/qm0.0W/qm0.0
1. Nov 2020 um 00:20 Uhr6.5°C6.6°C6.4°C97%1023.5hPa1023.4hPa0.0mm0.0km/h0.0km/h0.0W/qm0.0W/qm0.0
1. Nov 2020 um 00:25 Uhr6.4°C6.4°C6.4°C97%1023.7hPa1023.6hPa0.0mm0.0km/h0.0km/h0.0W/qm0.0W/qm0.0
1. Nov 2020 um 00:30 Uhr6.4°C6.4°C6.4°C97%1023.8hPa1023.7hPa0.0mm0.0km/h0.0km/h0.0W/qm0.0W/qm0.0
1. Nov 2020 um 00:35 Uhr6.3°C6.4°C6.3°C97%1023.8hPa1023.7hPa0.0mm0.0km/h0.0km/h0.0W/qm0.0W/qm0.0
1. Nov 2020 um 00:40 Uhr6.2°C6.3°C6.2°C97%1023.6hPa1023.5hPa0.0mm0.0km/h0.0km/h0.0W/qm0.0W/qm0.0
1. Nov 2020 um 00:45 Uhr6.1°C6.2°C6.1°C97%1023.7hPa1023.5hPa0.0mm0.0km/h0.0km/h0.0W/qm0.0W/qm0.0
1. Nov 2020 um 00:50 Uhr6.1°C6.1°C6.1°C97%1023.6hPa1023.5hPa0.0mm0.0km/h0.0km/h0.0W/qm0.0W/qm0.0
1. Nov 2020 um 00:55 Uhr6.1°C6.1°C6.0°C97%1023.7hPa1023.5hPa0.0mm0.0km/h0.0km/h0.0W/qm0.0W/qm0.0
1. Nov 2020 um 01:00 Uhr6.0°C6.1°C5.9°C97%1023.6hPa1023.6hPa0.0mm0.0km/h0.0km/h0.0W/qm0.0W/qm0.0
1. Nov 2020 um 01:05 Uhr5.9°C5.9°C5.9°C97%1023.6hPa1023.5hPa0.0mm0.0km/h0.0km/h0.0W/qm0.0W/qm0.0
1. Nov 2020 um 01:10 Uhr5.8°C5.9°C5.8°C97%1023.6hPa1023.5hPa0.0mm0.0km/h0.0km/h0.0W/qm0.0W/qm0.0
1. Nov 2020 um 01:15 Uhr5.8°C5.8°C5.8°C97%1023.7hPa1023.6hPa0.0mm0.0km/h0.0km/h0.0W/qm0.0W/qm0.0
1. Nov 2020 um 01:20 Uhr5.7°C5.7°C5.7°C97%1023.7hPa1023.6hPa0.0mm0.0km/h0.0km/h0.0W/qm0.0W/qm0.0
1. Nov 2020 um 01:25 Uhr5.6°C5.7°C5.6°C97%1023.7hPa1023.6hPa0.0mm0.0km/h0.0km/h0.0W/qm0.0W/qm0.0
1. Nov 2020 um 01:30 Uhr5.6°C5.6°C5.6°C97%1023.7hPa1023.7hPa0.0mm0.0km/h0.0km/h0.0W/qm0.0W/qm0.0
1. Nov 2020 um 01:35 Uhr5.6°C5.6°C5.5°C97%1023.7hPa1023.7hPa0.0mm0.0km/h0.0km/h0.0W/qm0.0W/qm0.0
1. Nov 2020 um 01:40 Uhr5.4°C5.5°C5.4°C97%1023.8hPa1023.7hPa0.0mm0.0km/h0.0km/h0.0W/qm0.0W/qm0.0
1. Nov 2020 um 01:45 Uhr5.4°C5.4°C5.4°C97%1023.8hPa1023.8hPa0.0mm0.0km/h0.0km/h0.0W/qm0.0W/qm0.0
1. Nov 2020 um 01:50 Uhr5.3°C5.4°C5.3°C97%1023.8hPa1023.8hPa0.0mm0.0km/h0.0km/h0.0W/qm0.0W/qm0.0
1. Nov 2020 um 01:55 Uhr5.3°C5.3°C5.3°C97%1023.9hPa1023.8hPa0.0mm0.0km/h0.0km/h0.0W/qm0.0W/qm0.0
1. Nov 2020 um 02:00 Uhr5.3°C5.3°C5.3°C97%1023.9hPa1023.9hPa0.0mm0.0km/h0.0km/h0.0W/qm0.0W/qm0.0
1. Nov 2020 um 02:05 Uhr5.3°C5.3°C5.3°C98%1023.9hPa1023.7hPa0.0mm0.0km/h0.0km/h0.0W/qm0.0W/qm0.0
1. Nov 2020 um 02:10 Uhr5.3°C5.3°C5.2°C98%1023.7hPa1023.7hPa0.0mm0.0km/h0.0km/h0.0W/qm0.0W/qm0.0
1. Nov 2020 um 02:15 Uhr5.2°C5.3°C5.2°C97%1023.8hPa1023.7hPa0.0mm0.0km/h0.0km/h0.0W/qm0.0W/qm0.0
1. Nov 2020 um 02:20 Uhr5.3°C5.3°C5.2°C98%1023.8hPa1023.7hPa0.0mm0.0km/h0.0km/h0.0W/qm0.0W/qm0.0
1. Nov 2020 um 02:25 Uhr5.3°C5.3°C5.3°C98%1023.7hPa1023.7hPa0.0mm0.0km/h0.0km/h0.0W/qm0.0W/qm0.0
1. Nov 2020 um 02:30 Uhr5.3°C5.3°C5.3°C98%1023.7hPa1023.6hPa0.0mm0.0km/h0.0km/h0.0W/qm0.0W/qm0.0
1. Nov 2020 um 02:35 Uhr5.3°C5.4°C5.3°C98%1023.7hPa1023.6hPa0.0mm0.0km/h0.0km/h0.0W/qm0.0W/qm0.0
1. Nov 2020 um 02:40 Uhr5.4°C5.4°C5.4°C98%1023.7hPa1023.6hPa0.0mm0.0km/h0.0km/h0.0W/qm0.0W/qm0.0
1. Nov 2020 um 02:45 Uhr5.4°C5.4°C5.4°C98%1023.7hPa1023.6hPa0.0mm0.0km/h0.0km/h0.0W/qm0.0W/qm0.0
1. Nov 2020 um 02:50 Uhr5.5°C5.5°C5.4°C98%1023.6hPa1023.6hPa0.0mm0.0km/h0.0km/h0.0W/qm0.0W/qm0.0
1. Nov 2020 um 02:55 Uhr5.5°C5.5°C5.4°C98%1023.6hPa1023.5hPa0.0mm0.0km/h0.0km/h0.0W/qm0.0W/qm0.0
1. Nov 2020 um 03:00 Uhr5.4°C5.5°C5.4°C98%1023.6hPa1023.5hPa0.0mm0.0km/h0.0km/h0.0W/qm0.0W/qm0.0
1. Nov 2020 um 03:05 Uhr5.4°C5.4°C5.4°C98%1023.5hPa1023.5hPa0.0mm0.0km/h0.0km/h0.0W/qm0.0W/qm0.0
1. Nov 2020 um 03:10 Uhr5.4°C5.4°C5.4°C98%1023.5hPa1023.4hPa0.0mm0.0km/h0.0km/h0.0W/qm0.0W/qm0.0
1. Nov 2020 um 03:15 Uhr5.4°C5.4°C5.4°C98%1023.6hPa1023.5hPa0.0mm0.0km/h0.0km/h0.0W/qm0.0W/qm0.0
1. Nov 2020 um 03:20 Uhr5.4°C5.4°C5.4°C98%1023.6hPa1023.5hPa0.0mm0.0km/h0.0km/h0.0W/qm0.0W/qm0.0
1. Nov 2020 um 03:25 Uhr5.4°C5.4°C5.3°C98%1023.6hPa1023.5hPa0.0mm0.0km/h0.0km/h0.0W/qm0.0W/qm0.0
1. Nov 2020 um 03:30 Uhr5.3°C5.3°C5.3°C98%1023.6hPa1023.5hPa0.0mm0.0km/h0.0km/h0.0W/qm0.0W/qm0.0
1. Nov 2020 um 03:35 Uhr5.3°C5.3°C5.3°C98%1023.7hPa1023.5hPa0.0mm0.0km/h0.0km/h0.0W/qm0.0W/qm0.0
1. Nov 2020 um 03:40 Uhr5.3°C5.3°C5.2°C98%1023.8hPa1023.7hPa0.0mm0.0km/h0.0km/h0.0W/qm0.0W/qm0.0
1. Nov 2020 um 03:45 Uhr5.2°C5.2°C5.2°C98%1023.9hPa1023.8hPa0.0mm0.0km/h0.0km/h0.0W/qm0.0W/qm0.0
1. Nov 2020 um 03:50 Uhr5.2°C5.2°C5.2°C98%1023.8hPa1023.7hPa0.0mm0.0km/h0.0km/h0.0W/qm0.0W/qm0.0
1. Nov 2020 um 03:55 Uhr5.2°C5.2°C5.1°C98%1023.7hPa1023.7hPa0.0mm0.0km/h0.0km/h0.0W/qm0.0W/qm0.0
1. Nov 2020 um 04:00 Uhr5.1°C5.1°C5.1°C98%1023.7hPa1023.6hPa0.0mm0.0km/h0.0km/h0.0W/qm0.0W/qm0.0
1. Nov 2020 um 04:05 Uhr5.1°C5.1°C5.1°C98%1023.6hPa1023.6hPa0.0mm0.0km/h0.0km/h0.0W/qm0.0W/qm0.0
1. Nov 2020 um 04:10 Uhr5.1°C5.1°C5.1°C98%1023.6hPa1023.5hPa0.0mm0.0km/h0.0km/h0.0W/qm0.0W/qm0.0
1. Nov 2020 um 04:15 Uhr5.2°C5.2°C5.1°C98%1023.6hPa1023.6hPa0.0mm0.0km/h0.0km/h0.0W/qm0.0W/qm0.0
1. Nov 2020 um 04:20 Uhr5.2°C5.3°C5.2°C98%1023.6hPa1023.5hPa0.0mm0.0km/h0.0km/h0.0W/qm0.0W/qm0.0
1. Nov 2020 um 04:25 Uhr5.3°C5.3°C5.3°C98%1023.6hPa1023.5hPa0.0mm0.0km/h0.0km/h0.0W/qm0.0W/qm0.0
1. Nov 2020 um 04:30 Uhr5.3°C5.3°C5.3°C98%1023.6hPa1023.5hPa0.0mm0.0km/h0.0km/h0.0W/qm0.0W/qm0.0
1. Nov 2020 um 04:35 Uhr5.3°C5.3°C5.3°C98%1023.6hPa1023.5hPa0.0mm0.0km/h0.0km/h0.0W/qm0.0W/qm0.0
1. Nov 2020 um 04:40 Uhr5.3°C5.3°C5.3°C98%1023.5hPa1023.5hPa0.0mm0.0km/h0.0km/h0.0W/qm0.0W/qm0.0
1. Nov 2020 um 04:45 Uhr5.3°C5.3°C5.3°C98%1023.5hPa1023.4hPa0.0mm0.0km/h0.0km/h0.0W/qm0.0W/qm0.0
1. Nov 2020 um 04:50 Uhr5.3°C5.3°C5.3°C98%1023.5hPa1023.4hPa0.0mm0.0km/h0.0km/h0.0W/qm0.0W/qm0.0
1. Nov 2020 um 04:55 Uhr5.3°C5.3°C5.3°C98%1023.5hPa1023.4hPa0.0mm0.0km/h0.0km/h0.0W/qm0.0W/qm0.0
1. Nov 2020 um 05:00 Uhr5.3°C5.3°C5.3°C98%1023.6hPa1023.5hPa0.0mm0.0km/h0.0km/h0.0W/qm0.0W/qm0.0
1. Nov 2020 um 05:05 Uhr5.3°C5.3°C5.3°C98%1023.5hPa1023.5hPa0.0mm0.0km/h0.0km/h0.0W/qm0.0W/qm0.0
1. Nov 2020 um 05:10 Uhr5.3°C5.3°C5.3°C98%1023.5hPa1023.4hPa0.0mm0.0km/h0.0km/h0.0W/qm0.0W/qm0.0
1. Nov 2020 um 05:15 Uhr5.3°C5.3°C5.3°C98%1023.5hPa1023.4hPa0.0mm0.0km/h0.0km/h0.0W/qm0.0W/qm0.0
1. Nov 2020 um 05:20 Uhr5.3°C5.3°C5.2°C98%1023.4hPa1023.4hPa0.0mm0.0km/h0.0km/h0.0W/qm0.0W/qm0.0
1. Nov 2020 um 05:25 Uhr5.2°C5.3°C5.2°C98%1023.5hPa1023.4hPa0.0mm0.0km/h0.0km/h0.0W/qm0.0W/qm0.0
1. Nov 2020 um 05:30 Uhr5.2°C5.2°C5.2°C98%1023.4hPa1023.4hPa0.0mm0.0km/h0.0km/h0.0W/qm0.0W/qm0.0
1. Nov 2020 um 05:35 Uhr5.2°C5.3°C5.2°C98%1023.4hPa1023.4hPa0.0mm0.0km/h0.0km/h0.0W/qm0.0W/qm0.0
1. Nov 2020 um 05:40 Uhr5.3°C5.3°C5.2°C98%1023.4hPa1023.4hPa0.0mm0.0km/h0.0km/h0.0W/qm0.0W/qm0.0
1. Nov 2020 um 05:45 Uhr5.3°C5.3°C5.3°C98%1023.4hPa1023.4hPa0.0mm0.0km/h0.0km/h0.0W/qm0.0W/qm0.0
1. Nov 2020 um 05:50 Uhr5.3°C5.3°C5.3°C98%1023.4hPa1023.4hPa0.0mm0.0km/h0.0km/h0.0W/qm0.0W/qm0.0
1. Nov 2020 um 05:55 Uhr5.3°C5.3°C5.3°C98%1023.4hPa1023.3hPa0.0mm0.0km/h0.0km/h0.0W/qm0.0W/qm0.0
1. Nov 2020 um 06:00 Uhr5.3°C5.4°C5.3°C98%1023.4hPa1023.3hPa0.0mm0.0km/h0.0km/h0.0W/qm0.0W/qm0.0
1. Nov 2020 um 06:05 Uhr5.4°C5.4°C5.4°C98%1023.3hPa1023.2hPa0.0mm0.0km/h0.0km/h0.0W/qm0.0W/qm0.0
1. Nov 2020 um 06:10 Uhr5.4°C5.5°C5.4°C98%1023.3hPa1023.2hPa0.0mm0.0km/h0.0km/h0.0W/qm0.0W/qm0.0
1. Nov 2020 um 06:15 Uhr5.5°C5.5°C5.5°C98%1023.3hPa1023.2hPa0.0mm0.0km/h0.0km/h0.0W/qm0.0W/qm0.0
1. Nov 2020 um 06:20 Uhr5.6°C5.6°C5.5°C98%1023.2hPa1023.2hPa0.0mm0.0km/h0.0km/h0.0W/qm0.0W/qm0.0
1. Nov 2020 um 06:25 Uhr5.6°C5.6°C5.6°C99%1023.2hPa1023.1hPa0.0mm0.0km/h0.0km/h0.0W/qm0.0W/qm0.0
1. Nov 2020 um 06:30 Uhr5.6°C5.6°C5.6°C99%1023.1hPa1023.1hPa0.0mm0.0km/h0.0km/h0.0W/qm0.0W/qm0.0
1. Nov 2020 um 06:35 Uhr5.6°C5.7°C5.6°C99%1023.1hPa1022.9hPa0.0mm0.0km/h0.0km/h0.0W/qm0.0W/qm0.0
1. Nov 2020 um 06:40 Uhr5.7°C5.7°C5.7°C99%1022.9hPa1022.9hPa0.0mm0.0km/h0.0km/h0.0W/qm0.0W/qm0.0
1. Nov 2020 um 06:45 Uhr5.7°C5.7°C5.7°C99%1022.9hPa1022.9hPa0.0mm0.0km/h0.0km/h0.0W/qm0.0W/qm0.0
1. Nov 2020 um 06:50 Uhr5.7°C5.7°C5.7°C99%1022.9hPa1022.8hPa0.0mm0.0km/h0.0km/h0.0W/qm0.0W/qm0.0
1. Nov 2020 um 06:55 Uhr5.8°C5.8°C5.8°C99%1022.8hPa1022.8hPa0.0mm0.0km/h0.0km/h0.0W/qm0.0W/qm0.0
1. Nov 2020 um 07:00 Uhr5.8°C5.8°C5.8°C99%1022.8hPa1022.7hPa0.0mm0.0km/h0.0km/h0.0W/qm0.0W/qm0.0
1. Nov 2020 um 07:05 Uhr5.8°C5.8°C5.8°C99%1022.7hPa1022.7hPa0.0mm0.0km/h0.0km/h0.0W/qm0.0W/qm0.0
1. Nov 2020 um 07:10 Uhr5.8°C5.8°C5.8°C99%1022.8hPa1022.7hPa0.0mm0.0km/h0.0km/h3.8W/qm5.0W/qm0.0
1. Nov 2020 um 07:15 Uhr5.8°C5.8°C5.8°C99%1022.7hPa1022.6hPa0.0mm0.0km/h0.0km/h7.4W/qm9.0W/qm0.0
1. Nov 2020 um 07:20 Uhr5.8°C5.8°C5.8°C99%1022.9hPa1022.7hPa0.0mm0.0km/h0.0km/h11.0W/qm12.0W/qm0.0
1. Nov 2020 um 07:25 Uhr5.8°C5.9°C5.8°C99%1022.9hPa1022.8hPa0.0mm0.0km/h0.0km/h16.0W/qm18.0W/qm0.0
1. Nov 2020 um 07:30 Uhr5.9°C5.9°C5.8°C99%1022.8hPa1022.7hPa0.0mm0.0km/h0.0km/h19.6W/qm21.0W/qm0.0
1. Nov 2020 um 07:35 Uhr5.9°C5.9°C5.9°C99%1022.7hPa1022.7hPa0.0mm0.0km/h0.0km/h22.5W/qm23.0W/qm0.0
1. Nov 2020 um 07:40 Uhr5.9°C5.9°C5.9°C99%1022.7hPa1022.7hPa0.0mm0.0km/h0.0km/h23.8W/qm25.0W/qm0.0
1. Nov 2020 um 07:45 Uhr5.9°C6.0°C5.9°C99%1022.7hPa1022.6hPa0.0mm0.0km/h0.0km/h26.8W/qm28.0W/qm0.0
1. Nov 2020 um 07:50 Uhr6.0°C6.1°C6.0°C99%1022.7hPa1022.6hPa0.0mm0.0km/h0.0km/h28.0W/qm28.0W/qm0.0
1. Nov 2020 um 07:55 Uhr6.1°C6.2°C6.1°C99%1022.7hPa1022.7hPa0.0mm0.0km/h0.0km/h32.0W/qm35.0W/qm0.0
1. Nov 2020 um 08:00 Uhr6.2°C6.3°C6.2°C99%1022.8hPa1022.7hPa0.0mm0.0km/h0.0km/h34.2W/qm35.0W/qm0.0
1. Nov 2020 um 08:05 Uhr6.3°C6.3°C6.3°C99%1022.8hPa1022.7hPa0.0mm0.0km/h0.0km/h36.0W/qm37.0W/qm0.0
1. Nov 2020 um 08:10 Uhr6.4°C6.5°C6.4°C99%1022.8hPa1022.7hPa0.0mm0.0km/h0.0km/h33.0W/qm37.0W/qm0.0
1. Nov 2020 um 08:15 Uhr6.6°C6.6°C6.6°C99%1022.7hPa1022.6hPa0.0mm0.0km/h0.0km/h39.0W/qm39.0W/qm0.0
1. Nov 2020 um 08:20 Uhr6.7°C6.7°C6.6°C99%1022.7hPa1022.6hPa0.0mm0.0km/h0.0km/h37.0W/qm39.0W/qm0.0
1. Nov 2020 um 08:25 Uhr6.8°C6.8°C6.7°C99%1022.7hPa1022.6hPa0.0mm0.0km/h0.0km/h33.5W/qm35.0W/qm0.0
1. Nov 2020 um 08:30 Uhr6.8°C6.8°C6.8°C99%1022.6hPa1022.6hPa0.0mm0.0km/h0.0km/h34.5W/qm39.0W/qm0.0
1. Nov 2020 um 08:35 Uhr6.9°C6.9°C6.8°C99%1022.6hPa1022.5hPa0.0mm0.0km/h0.0km/h42.7W/qm44.0W/qm0.0
1. Nov 2020 um 08:40 Uhr6.9°C7.0°C6.9°C99%1022.6hPa1022.5hPa0.0mm0.0km/h0.0km/h46.2W/qm47.0W/qm0.0
1. Nov 2020 um 08:45 Uhr7.1°C7.2°C7.0°C99%1022.5hPa1022.5hPa0.0mm0.0km/h0.0km/h42.0W/qm44.0W/qm0.0
1. Nov 2020 um 08:50 Uhr7.2°C7.2°C7.2°C99%1022.7hPa1022.6hPa0.0mm0.0km/h0.0km/h39.8W/qm40.0W/qm0.0
1. Nov 2020 um 08:55 Uhr7.3°C7.3°C7.2°C99%1022.7hPa1022.6hPa0.0mm0.0km/h0.0km/h38.2W/qm39.0W/qm0.0
1. Nov 2020 um 09:00 Uhr7.3°C7.3°C7.3°C99%1022.8hPa1022.7hPa0.0mm0.0km/h0.0km/h46.0W/qm54.0W/qm0.0
1. Nov 2020 um 09:05 Uhr7.4°C7.4°C7.3°C99%1022.8hPa1022.8hPa0.0mm0.0km/h0.0km/h61.4W/qm63.0W/qm0.0
1. Nov 2020 um 09:10 Uhr7.4°C7.5°C7.4°C99%1022.8hPa1022.7hPa0.0mm0.0km/h0.0km/h73.5W/qm77.0W/qm0.0
1. Nov 2020 um 09:15 Uhr7.6°C7.6°C7.5°C99%1022.8hPa1022.8hPa0.0mm0.0km/h0.0km/h74.0W/qm76.0W/qm0.0
1. Nov 2020 um 09:20 Uhr7.6°C7.7°C7.6°C99%1022.9hPa1022.8hPa0.0mm0.0km/h0.0km/h76.8W/qm79.0W/qm0.0
1. Nov 2020 um 09:25 Uhr7.8°C7.9°C7.7°C99%1022.9hPa1022.8hPa0.0mm0.0km/h0.0km/h89.3W/qm95.0W/qm0.0
1. Nov 2020 um 09:30 Uhr8.0°C8.1°C7.9°C99%1023.0hPa1022.9hPa0.0mm0.0km/h0.0km/h94.0W/qm97.0W/qm0.0
1. Nov 2020 um 09:35 Uhr8.1°C8.2°C8.1°C99%1023.0hPa1023.0hPa0.0mm0.0km/h0.0km/h77.2W/qm86.0W/qm0.0
1. Nov 2020 um 09:40 Uhr8.2°C8.2°C8.2°C99%1023.0hPa1022.9hPa0.0mm0.0km/h0.0km/h69.7W/qm76.0W/qm0.0
1. Nov 2020 um 09:45 Uhr8.2°C8.2°C8.2°C99%1023.0hPa1022.9hPa0.0mm0.0km/h0.0km/h86.2W/qm88.0W/qm0.0
1. Nov 2020 um 09:50 Uhr8.3°C8.4°C8.3°C99%1023.0hPa1023.0hPa0.0mm0.0km/h0.0km/h79.8W/qm86.0W/qm0.0
1. Nov 2020 um 09:55 Uhr8.6°C8.6°C8.5°C99%1023.1hPa1023.0hPa0.0mm0.0km/h0.0km/h87.0W/qm91.0W/qm0.0
1. Nov 2020 um 10:00 Uhr8.7°C8.8°C8.7°C99%1023.1hPa1023.1hPa0.0mm0.0km/h0.0km/h109.2W/qm118.0W/qm0.5
1. Nov 2020 um 10:05 Uhr8.8°C8.8°C8.8°C99%1023.2hPa1023.1hPa0.0mm0.0km/h0.0km/h96.2W/qm98.0W/qm0.5
1. Nov 2020 um 10:10 Uhr8.9°C8.9°C8.9°C99%1023.4hPa1023.2hPa0.0mm0.0km/h0.0km/h87.8W/qm100.0W/qm0.5
1. Nov 2020 um 10:15 Uhr9.0°C9.1°C8.9°C99%1023.5hPa1023.4hPa0.0mm0.0km/h0.0km/h66.3W/qm67.0W/qm0.0
1. Nov 2020 um 10:20 Uhr9.2°C9.2°C9.1°C99%1023.5hPa1023.5hPa0.0mm0.0km/h0.0km/h72.0W/qm81.0W/qm0.0
1. Nov 2020 um 10:25 Uhr9.3°C9.4°C9.2°C98%1023.6hPa1023.5hPa0.0mm0.0km/h0.0km/h77.2W/qm79.0W/qm0.0
1. Nov 2020 um 10:30 Uhr9.5°C9.6°C9.4°C98%1023.8hPa1023.6hPa0.0mm0.0km/h0.0km/h97.8W/qm105.0W/qm0.5
1. Nov 2020 um 10:35 Uhr9.7°C9.7°C9.6°C98%1023.8hPa1023.7hPa0.0mm0.0km/h0.0km/h106.0W/qm107.0W/qm0.5
1. Nov 2020 um 10:40 Uhr9.8°C9.8°C9.7°C98%1023.8hPa1023.7hPa0.0mm0.0km/h0.0km/h84.8W/qm97.0W/qm0.0
1. Nov 2020 um 10:45 Uhr9.8°C9.9°C9.8°C97%1023.8hPa1023.7hPa0.0mm0.0km/h0.0km/h90.2W/qm104.0W/qm0.5
1. Nov 2020 um 10:50 Uhr10.0°C10.1°C9.9°C98%1023.9hPa1023.8hPa0.0mm0.0km/h3.2km/h89.8W/qm95.0W/qm0.0
1. Nov 2020 um 10:55 Uhr10.2°C10.2°C10.1°C97%1023.9hPa1023.8hPa0.2mm0.1km/h4.7km/h66.4W/qm74.0W/qm0.0
1. Nov 2020 um 11:00 Uhr10.2°C10.2°C10.2°C97%1024.1hPa1023.9hPa0.0mm1.4km/h3.2km/h56.6W/qm63.0W/qm0.0
1. Nov 2020 um 11:05 Uhr10.2°C10.2°C10.2°C96%1024.1hPa1024.1hPa0.0mm1.2km/h0.0km/h43.2W/qm44.0W/qm0.0
1. Nov 2020 um 11:10 Uhr10.3°C10.3°C10.3°C96%1024.1hPa1024.1hPa0.2mm0.0km/h0.0km/h50.2W/qm54.0W/qm0.0
1. Nov 2020 um 11:15 Uhr10.3°C10.3°C10.3°C96%1024.2hPa1024.1hPa0.0mm0.0km/h1.4km/h46.8W/qm49.0W/qm0.0
1. Nov 2020 um 11:20 Uhr10.3°C10.3°C10.3°C95%1024.2hPa1024.1hPa0.0mm0.0km/h0.0km/h59.2W/qm63.0W/qm0.0
1. Nov 2020 um 11:25 Uhr10.3°C10.3°C10.3°C95%1024.2hPa1024.1hPa0.0mm0.0km/h3.2km/h67.8W/qm72.0W/qm0.0
1. Nov 2020 um 11:30 Uhr10.3°C10.3°C10.3°C95%1024.0hPa1024.0hPa0.2mm0.0km/h4.7km/h71.6W/qm77.0W/qm0.0
1. Nov 2020 um 11:35 Uhr10.3°C10.3°C10.3°C95%1024.1hPa1024.1hPa0.2mm1.4km/h4.7km/h54.6W/qm60.0W/qm0.0
1. Nov 2020 um 11:40 Uhr10.2°C10.2°C10.2°C95%1024.1hPa1024.1hPa0.0mm1.4km/h4.7km/h52.6W/qm58.0W/qm0.0
1. Nov 2020 um 11:45 Uhr10.2°C10.2°C10.2°C95%1024.1hPa1024.1hPa0.4mm2.2km/h6.5km/h76.3W/qm88.0W/qm0.0
1. Nov 2020 um 11:50 Uhr10.2°C10.2°C10.2°C95%1024.1hPa1024.0hPa0.2mm3.2km/h6.5km/h84.4W/qm88.0W/qm0.0
1. Nov 2020 um 11:55 Uhr10.2°C10.2°C10.2°C96%1024.0hPa1024.0hPa0.0mm3.2km/h4.7km/h100.0W/qm102.0W/qm0.5
1. Nov 2020 um 12:00 Uhr10.2°C10.2°C10.2°C96%1024.0hPa1023.9hPa0.0mm2.8km/h4.7km/h115.3W/qm121.0W/qm0.6
1. Nov 2020 um 12:05 Uhr10.2°C10.2°C10.2°C96%1023.9hPa1023.8hPa0.0mm3.2km/h4.7km/h95.0W/qm102.0W/qm0.5
1. Nov 2020 um 12:10 Uhr10.2°C10.2°C10.2°C96%1023.8hPa1023.7hPa0.2mm3.2km/h6.5km/h86.3W/qm95.0W/qm0.5
1. Nov 2020 um 12:15 Uhr10.2°C10.2°C10.2°C96%1023.7hPa1023.6hPa0.0mm2.0km/h7.9km/h66.0W/qm76.0W/qm0.0
1. Nov 2020 um 12:20 Uhr10.2°C10.3°C10.2°C97%1023.7hPa1023.6hPa0.0mm1.8km/h6.5km/h59.5W/qm60.0W/qm0.0
1. Nov 2020 um 12:25 Uhr10.2°C10.3°C10.2°C97%1023.7hPa1023.6hPa0.2mm1.6km/h6.5km/h59.2W/qm60.0W/qm0.0
1. Nov 2020 um 12:30 Uhr10.2°C10.2°C10.2°C97%1023.7hPa1023.6hPa0.2mm1.4km/h3.2km/h60.0W/qm60.0W/qm0.0
1. Nov 2020 um 12:35 Uhr10.2°C10.2°C10.2°C97%1023.6hPa1023.5hPa0.0mm1.4km/h3.2km/h59.0W/qm62.0W/qm0.0
1. Nov 2020 um 12:40 Uhr10.3°C10.3°C10.2°C97%1023.6hPa1023.5hPa0.2mm1.4km/h3.2km/h67.4W/qm72.0W/qm0.0
1. Nov 2020 um 12:45 Uhr10.3°C10.3°C10.3°C97%1023.4hPa1023.4hPa0.0mm1.0km/h1.4km/h78.2W/qm83.0W/qm0.0
1. Nov 2020 um 12:50 Uhr10.3°C10.3°C10.3°C97%1023.4hPa1023.4hPa0.2mm0.0km/h0.0km/h87.2W/qm90.0W/qm0.5
1. Nov 2020 um 12:55 Uhr10.3°C10.4°C10.3°C97%1023.4hPa1023.3hPa0.0mm0.0km/h0.0km/h81.7W/qm83.0W/qm0.0
1. Nov 2020 um 13:00 Uhr10.4°C10.5°C10.4°C97%1023.3hPa1023.3hPa0.2mm0.0km/h0.0km/h73.3W/qm76.0W/qm0.0
1. Nov 2020 um 13:05 Uhr10.6°C10.6°C10.5°C97%1023.3hPa1023.3hPa0.0mm0.0km/h0.0km/h71.0W/qm72.0W/qm0.0
1. Nov 2020 um 13:10 Uhr10.6°C10.6°C10.6°C97%1023.3hPa1023.3hPa0.2mm0.0km/h0.0km/h72.4W/qm74.0W/qm0.0
1. Nov 2020 um 13:15 Uhr10.6°C10.7°C10.6°C97%1023.3hPa1023.2hPa0.0mm0.0km/h0.0km/h76.2W/qm81.0W/qm0.0
1. Nov 2020 um 13:20 Uhr10.7°C10.7°C10.7°C98%1023.2hPa1023.1hPa0.0mm0.0km/h0.0km/h87.0W/qm93.0W/qm0.0
1. Nov 2020 um 13:25 Uhr10.8°C10.8°C10.8°C98%1023.2hPa1023.1hPa0.2mm0.0km/h0.0km/h89.7W/qm93.0W/qm0.0
1. Nov 2020 um 13:30 Uhr10.8°C10.9°C10.8°C98%1023.2hPa1023.1hPa0.0mm0.0km/h0.0km/h74.8W/qm79.0W/qm0.0
1. Nov 2020 um 13:35 Uhr10.9°C11.0°C10.9°C98%1023.1hPa1023.1hPa0.0mm0.0km/h0.0km/h80.8W/qm84.0W/qm0.0
1. Nov 2020 um 13:40 Uhr11.1°C11.2°C11.1°C98%1023.0hPa1023.0hPa0.0mm0.0km/h0.0km/h87.4W/qm91.0W/qm0.0
1. Nov 2020 um 13:45 Uhr11.3°C11.3°C11.2°C98%1023.0hPa1022.9hPa0.2mm0.0km/h0.0km/h95.4W/qm97.0W/qm0.0
1. Nov 2020 um 13:50 Uhr11.4°C11.5°C11.4°C98%1022.9hPa1022.9hPa0.0mm0.0km/h3.2km/h83.2W/qm91.0W/qm0.0
1. Nov 2020 um 13:55 Uhr11.6°C11.6°C11.6°C98%1022.9hPa1022.8hPa0.0mm0.0km/h1.4km/h74.0W/qm76.0W/qm0.0
1. Nov 2020 um 14:00 Uhr11.7°C11.7°C11.6°C98%1022.8hPa1022.8hPa0.0mm0.0km/h0.0km/h66.2W/qm69.0W/qm0.0
1. Nov 2020 um 14:05 Uhr11.8°C11.8°C11.7°C98%1022.8hPa1022.7hPa0.0mm0.0km/h3.2km/h58.4W/qm62.0W/qm0.0
1. Nov 2020 um 14:10 Uhr11.8°C11.8°C11.8°C98%1022.7hPa1022.7hPa0.0mm0.7km/h3.2km/h59.3W/qm60.0W/qm0.0
1. Nov 2020 um 14:15 Uhr11.9°C11.9°C11.9°C98%1022.7hPa1022.7hPa0.2mm1.4km/h1.4km/h53.6W/qm56.0W/qm0.0
1. Nov 2020 um 14:20 Uhr11.9°C11.9°C11.9°C98%1022.7hPa1022.7hPa0.0mm0.5km/h3.2km/h45.6W/qm47.0W/qm0.0
1. Nov 2020 um 14:25 Uhr11.9°C12.0°C11.9°C98%1022.7hPa1022.7hPa0.0mm1.3km/h4.7km/h46.0W/qm47.0W/qm0.0
1. Nov 2020 um 14:30 Uhr12.1°C12.1°C12.0°C99%1022.7hPa1022.6hPa0.0mm1.4km/h4.7km/h48.6W/qm49.0W/qm0.0
1. Nov 2020 um 14:35 Uhr12.1°C12.1°C12.1°C99%1022.6hPa1022.5hPa0.0mm1.4km/h4.7km/h44.8W/qm47.0W/qm0.0
1. Nov 2020 um 14:40 Uhr12.1°C12.1°C12.1°C99%1022.5hPa1022.5hPa0.0mm1.7km/h1.4km/h42.0W/qm42.0W/qm0.0
1. Nov 2020 um 14:45 Uhr12.1°C12.1°C12.1°C99%1022.5hPa1022.4hPa0.0mm1.4km/h4.7km/h43.0W/qm44.0W/qm0.0
1. Nov 2020 um 14:50 Uhr12.1°C12.1°C12.1°C99%1022.5hPa1022.4hPa0.2mm1.4km/h6.5km/h41.5W/qm44.0W/qm0.0
1. Nov 2020 um 14:55 Uhr12.1°C12.1°C12.1°C99%1022.5hPa1022.4hPa0.0mm1.4km/h4.7km/h37.3W/qm40.0W/qm0.0
1. Nov 2020 um 15:00 Uhr12.2°C12.2°C12.1°C99%1022.4hPa1022.4hPa0.0mm1.4km/h3.2km/h32.4W/qm33.0W/qm0.0
1. Nov 2020 um 15:05 Uhr12.2°C12.2°C12.2°C99%1022.5hPa1022.4hPa0.0mm1.4km/h6.5km/h33.0W/qm33.0W/qm0.0
1. Nov 2020 um 15:10 Uhr12.2°C12.2°C12.1°C99%1022.5hPa1022.5hPa0.0mm1.9km/h6.5km/h29.0W/qm32.0W/qm0.0
1. Nov 2020 um 15:15 Uhr12.1°C12.2°C12.1°C99%1022.5hPa1022.4hPa0.0mm3.2km/h6.5km/h29.6W/qm30.0W/qm0.0
1. Nov 2020 um 15:20 Uhr12.2°C12.2°C12.1°C99%1022.5hPa1022.4hPa0.0mm2.9km/h3.2km/h28.0W/qm30.0W/qm0.0
1. Nov 2020 um 15:25 Uhr12.1°C12.2°C12.1°C99%1022.5hPa1022.4hPa0.0mm2.8km/h7.9km/h31.8W/qm33.0W/qm0.0
1. Nov 2020 um 15:30 Uhr12.1°C12.1°C12.1°C99%1022.4hPa1022.4hPa0.0mm3.2km/h6.5km/h28.5W/qm30.0W/qm0.0
1. Nov 2020 um 15:35 Uhr12.1°C12.1°C12.1°C99%1022.4hPa1022.4hPa0.0mm2.3km/h3.2km/h29.6W/qm30.0W/qm0.0
1. Nov 2020 um 15:40 Uhr12.1°C12.1°C12.1°C99%1022.4hPa1022.4hPa0.2mm1.1km/h0.0km/h24.6W/qm28.0W/qm0.0
1. Nov 2020 um 15:45 Uhr12.1°C12.1°C12.1°C99%1022.4hPa1022.3hPa0.0mm0.0km/h3.2km/h22.2W/qm25.0W/qm0.0
1. Nov 2020 um 15:50 Uhr12.1°C12.1°C12.1°C99%1022.3hPa1022.2hPa0.0mm0.0km/h0.0km/h29.3W/qm32.0W/qm0.0
1. Nov 2020 um 15:55 Uhr12.1°C12.2°C12.1°C99%1022.2hPa1022.2hPa0.0mm0.0km/h0.0km/h29.0W/qm32.0W/qm0.0
1. Nov 2020 um 16:00 Uhr12.2°C12.2°C12.1°C99%1022.2hPa1022.1hPa0.0mm0.0km/h0.0km/h20.2W/qm23.0W/qm0.0
1. Nov 2020 um 16:05 Uhr12.2°C12.2°C12.2°C99%1022.2hPa1022.1hPa0.0mm0.0km/h0.0km/h18.2W/qm19.0W/qm0.0
1. Nov 2020 um 16:10 Uhr12.2°C12.2°C12.2°C99%1022.2hPa1022.1hPa0.0mm0.0km/h3.2km/h18.0W/qm18.0W/qm0.0
1. Nov 2020 um 16:15 Uhr12.2°C12.2°C12.2°C99%1022.1hPa1022.1hPa0.0mm0.0km/h1.4km/h18.4W/qm19.0W/qm0.0
1. Nov 2020 um 16:20 Uhr12.2°C12.2°C12.2°C99%1022.1hPa1022.1hPa0.0mm0.6km/h1.4km/h17.8W/qm19.0W/qm0.0
1. Nov 2020 um 16:25 Uhr12.2°C12.2°C12.2°C99%1022.1hPa1022.0hPa0.2mm0.0km/h0.0km/h14.4W/qm16.0W/qm0.0
1. Nov 2020 um 16:30 Uhr12.2°C12.2°C12.2°C99%1022.1hPa1022.0hPa0.0mm0.0km/h0.0km/h10.6W/qm12.0W/qm0.0
1. Nov 2020 um 16:35 Uhr12.2°C12.2°C12.2°C99%1022.1hPa1022.1hPa0.0mm0.0km/h0.0km/h6.3W/qm7.0W/qm0.0
1. Nov 2020 um 16:40 Uhr12.2°C12.2°C12.2°C99%1022.1hPa1022.1hPa0.0mm0.0km/h0.0km/h4.0W/qm5.0W/qm0.0
1. Nov 2020 um 16:45 Uhr12.2°C12.2°C12.2°C99%1022.1hPa1022.0hPa0.0mm0.0km/h0.0km/h0.0W/qm0.0W/qm0.0
1. Nov 2020 um 16:50 Uhr12.2°C12.2°C12.1°C99%1022.1hPa1022.0hPa0.0mm0.0km/h0.0km/h0.0W/qm0.0W/qm0.0
1. Nov 2020 um 16:55 Uhr12.1°C12.2°C12.1°C99%1022.1hPa1022.0hPa0.0mm0.0km/h0.0km/h0.0W/qm0.0W/qm0.0
1. Nov 2020 um 17:00 Uhr12.1°C12.1°C12.1°C99%1022.0hPa1022.0hPa0.0mm0.0km/h0.0km/h0.0W/qm0.0W/qm0.0
1. Nov 2020 um 17:05 Uhr12.1°C12.1°C12.1°C99%1022.0hPa1022.0hPa0.0mm0.0km/h0.0km/h0.0W/qm0.0W/qm0.0
1. Nov 2020 um 17:10 Uhr12.1°C12.1°C12.1°C99%1022.0hPa1021.8hPa0.0mm0.0km/h0.0km/h0.0W/qm0.0W/qm0.0
1. Nov 2020 um 17:15 Uhr12.1°C12.1°C12.1°C99%1021.9hPa1021.8hPa0.0mm0.0km/h0.0km/h0.0W/qm0.0W/qm0.0
1. Nov 2020 um 17:20 Uhr12.1°C12.1°C12.1°C99%1022.0hPa1021.9hPa0.0mm0.0km/h0.0km/h0.0W/qm0.0W/qm0.0
1. Nov 2020 um 17:25 Uhr12.1°C12.1°C12.1°C99%1021.9hPa1021.9hPa0.0mm0.0km/h0.0km/h0.0W/qm0.0W/qm0.0
1. Nov 2020 um 17:30 Uhr12.1°C12.1°C12.1°C99%1022.0hPa1021.9hPa0.0mm0.0km/h0.0km/h0.0W/qm0.0W/qm0.0
1. Nov 2020 um 17:35 Uhr12.1°C12.1°C12.1°C99%1022.0hPa1021.9hPa0.0mm0.0km/h0.0km/h0.0W/qm0.0W/qm0.0
1. Nov 2020 um 17:40 Uhr12.1°C12.1°C12.0°C99%1022.0hPa1022.0hPa0.0mm0.0km/h0.0km/h0.0W/qm0.0W/qm0.0
1. Nov 2020 um 17:45 Uhr12.0°C12.0°C12.0°C99%1022.0hPa1021.9hPa0.0mm0.0km/h0.0km/h0.0W/qm0.0W/qm0.0
1. Nov 2020 um 17:50 Uhr12.0°C12.0°C12.0°C99%1022.1hPa1022.0hPa0.0mm0.0km/h0.0km/h0.0W/qm0.0W/qm0.0
1. Nov 2020 um 17:55 Uhr12.0°C12.0°C12.0°C99%1022.2hPa1022.1hPa0.0mm0.0km/h0.0km/h0.0W/qm0.0W/qm0.0
1. Nov 2020 um 18:00 Uhr12.0°C12.0°C11.9°C99%1022.2hPa1022.1hPa0.0mm0.0km/h0.0km/h0.0W/qm0.0W/qm0.0
1. Nov 2020 um 18:05 Uhr11.9°C12.0°C11.9°C99%1022.2hPa1022.1hPa0.0mm0.0km/h0.0km/h0.0W/qm0.0W/qm0.0
1. Nov 2020 um 18:10 Uhr11.9°C11.9°C11.9°C99%1022.2hPa1022.1hPa0.0mm0.0km/h0.0km/h0.0W/qm0.0W/qm0.0
1. Nov 2020 um 18:15 Uhr11.9°C11.9°C11.9°C99%1022.2hPa1022.1hPa0.0mm0.0km/h0.0km/h0.0W/qm0.0W/qm0.0
1. Nov 2020 um 18:20 Uhr11.9°C11.9°C11.9°C99%1022.2hPa1022.1hPa0.0mm0.0km/h0.0km/h0.0W/qm0.0W/qm0.0
1. Nov 2020 um 18:25 Uhr11.9°C11.9°C11.9°C99%1022.2hPa1022.2hPa0.0mm0.0km/h0.0km/h0.0W/qm0.0W/qm0.0
1. Nov 2020 um 18:30 Uhr11.9°C11.9°C11.9°C99%1022.2hPa1022.1hPa0.0mm0.0km/h0.0km/h0.0W/qm0.0W/qm0.0
1. Nov 2020 um 18:35 Uhr11.9°C11.9°C11.9°C99%1022.2hPa1022.1hPa0.0mm0.0km/h0.0km/h0.0W/qm0.0W/qm0.0
1. Nov 2020 um 18:40 Uhr11.9°C11.9°C11.9°C99%1022.2hPa1022.1hPa0.0mm0.0km/h0.0km/h0.0W/qm0.0W/qm0.0
1. Nov 2020 um 18:45 Uhr11.9°C11.9°C11.9°C99%1022.2hPa1022.2hPa0.0mm0.0km/h0.0km/h0.0W/qm0.0W/qm0.0
1. Nov 2020 um 18:50 Uhr11.9°C11.9°C11.9°C99%1022.2hPa1022.1hPa0.0mm0.0km/h0.0km/h0.0W/qm0.0W/qm0.0
1. Nov 2020 um 18:55 Uhr11.9°C11.9°C11.8°C99%1022.2hPa1022.1hPa0.0mm0.0km/h0.0km/h0.0W/qm0.0W/qm0.0
1. Nov 2020 um 19:00 Uhr11.8°C11.9°C11.8°C99%1022.1hPa1022.1hPa0.2mm0.0km/h0.0km/h0.0W/qm0.0W/qm0.0
1. Nov 2020 um 19:05 Uhr11.9°C11.9°C11.9°C99%1022.1hPa1022.0hPa0.0mm0.0km/h0.0km/h0.0W/qm0.0W/qm0.0
1. Nov 2020 um 19:10 Uhr11.9°C11.9°C11.9°C99%1022.0hPa1021.9hPa0.0mm0.0km/h4.7km/h0.0W/qm0.0W/qm0.0
1. Nov 2020 um 19:15 Uhr11.9°C12.0°C11.9°C99%1021.9hPa1021.9hPa0.2mm1.4km/h3.2km/h0.0W/qm0.0W/qm0.0
1. Nov 2020 um 19:20 Uhr12.0°C12.1°C12.0°C99%1021.9hPa1021.8hPa0.0mm1.4km/h3.2km/h0.0W/qm0.0W/qm0.0
1. Nov 2020 um 19:25 Uhr12.1°C12.1°C12.1°C99%1021.8hPa1021.7hPa0.0mm1.4km/h4.7km/h0.0W/qm0.0W/qm0.0
1. Nov 2020 um 19:30 Uhr12.1°C12.1°C12.1°C99%1021.7hPa1021.7hPa0.2mm1.4km/h6.5km/h0.0W/qm0.0W/qm0.0
1. Nov 2020 um 19:35 Uhr12.2°C12.2°C12.1°C99%1021.6hPa1021.6hPa0.0mm2.8km/h7.9km/h0.0W/qm0.0W/qm0.0
1. Nov 2020 um 19:40 Uhr12.2°C12.2°C12.2°C99%1021.6hPa1021.5hPa0.0mm2.8km/h3.2km/h0.0W/qm0.0W/qm0.0
1. Nov 2020 um 19:45 Uhr12.2°C12.2°C12.2°C99%1021.6hPa1021.5hPa0.0mm1.4km/h4.7km/h0.0W/qm0.0W/qm0.0
1. Nov 2020 um 19:50 Uhr12.2°C12.2°C12.2°C99%1021.6hPa1021.6hPa0.0mm1.4km/h7.9km/h0.0W/qm0.0W/qm0.0
1. Nov 2020 um 19:55 Uhr12.2°C12.2°C12.2°C99%1021.6hPa1021.5hPa0.0mm1.7km/h3.2km/h0.0W/qm0.0W/qm0.0
1. Nov 2020 um 20:00 Uhr12.2°C12.2°C12.2°C99%1021.6hPa1021.5hPa0.0mm1.4km/h4.7km/h0.0W/qm0.0W/qm0.0
1. Nov 2020 um 20:05 Uhr12.2°C12.2°C12.2°C99%1021.6hPa1021.5hPa0.0mm1.4km/h6.5km/h0.0W/qm0.0W/qm0.0
1. Nov 2020 um 20:10 Uhr12.2°C12.2°C12.2°C99%1021.6hPa1021.6hPa0.0mm1.8km/h6.5km/h0.0W/qm0.0W/qm0.0
1. Nov 2020 um 20:15 Uhr12.2°C12.3°C12.2°C99%1021.6hPa1021.5hPa0.0mm3.2km/h7.9km/h0.0W/qm0.0W/qm0.0
1. Nov 2020 um 20:20 Uhr12.3°C12.3°C12.3°C99%1021.6hPa1021.5hPa0.0mm3.2km/h6.5km/h0.0W/qm0.0W/qm0.0
1. Nov 2020 um 20:25 Uhr12.3°C12.3°C12.3°C99%1021.6hPa1021.5hPa0.0mm4.4km/h11.2km/h0.0W/qm0.0W/qm0.0
1. Nov 2020 um 20:30 Uhr12.4°C12.4°C12.3°C99%1021.6hPa1021.5hPa0.0mm3.7km/h6.5km/h0.0W/qm0.0W/qm0.0
1. Nov 2020 um 20:35 Uhr12.4°C12.4°C12.4°C100%1021.5hPa1021.5hPa0.0mm3.2km/h6.5km/h0.0W/qm0.0W/qm0.0
1. Nov 2020 um 20:40 Uhr12.6°C12.6°C12.5°C100%1021.5hPa1021.5hPa0.0mm3.9km/h7.9km/h0.0W/qm0.0W/qm0.0
1. Nov 2020 um 20:45 Uhr12.7°C12.8°C12.7°C99%1021.5hPa1021.4hPa0.0mm5.3km/h19.4km/h0.0W/qm0.0W/qm0.0
1. Nov 2020 um 20:50 Uhr12.8°C12.9°C12.8°C100%1021.5hPa1021.4hPa0.2mm6.5km/h13.0km/h0.0W/qm0.0W/qm0.0
1. Nov 2020 um 20:55 Uhr12.9°C12.9°C12.9°C100%1021.5hPa1021.4hPa0.2mm6.5km/h11.2km/h0.0W/qm0.0W/qm0.0
1. Nov 2020 um 21:00 Uhr12.9°C13.0°C12.9°C100%1021.5hPa1021.4hPa0.0mm6.5km/h9.7km/h0.0W/qm0.0W/qm0.0
1. Nov 2020 um 21:05 Uhr13.0°C13.0°C13.0°C100%1021.6hPa1021.5hPa0.0mm5.6km/h11.2km/h0.0W/qm0.0W/qm0.0
1. Nov 2020 um 21:10 Uhr13.1°C13.1°C13.0°C99%1021.5hPa1021.5hPa0.0mm5.0km/h7.9km/h0.0W/qm0.0W/qm0.0
1. Nov 2020 um 21:15 Uhr13.1°C13.1°C13.1°C99%1021.5hPa1021.5hPa0.0mm4.7km/h6.5km/h0.0W/qm0.0W/qm0.0
1. Nov 2020 um 21:20 Uhr13.1°C13.1°C13.1°C99%1021.5hPa1021.5hPa0.0mm4.7km/h6.5km/h0.0W/qm0.0W/qm0.0
1. Nov 2020 um 21:25 Uhr13.1°C13.1°C13.1°C99%1021.5hPa1021.5hPa0.0mm4.7km/h7.9km/h0.0W/qm0.0W/qm0.0
1. Nov 2020 um 21:30 Uhr13.1°C13.1°C13.1°C99%1021.5hPa1021.4hPa0.0mm4.7km/h9.7km/h0.0W/qm0.0W/qm0.0
1. Nov 2020 um 21:35 Uhr13.1°C13.1°C13.1°C99%1021.5hPa1021.4hPa0.0mm4.0km/h7.9km/h0.0W/qm0.0W/qm0.0
1. Nov 2020 um 21:40 Uhr13.1°C13.1°C13.1°C99%1021.5hPa1021.4hPa0.0mm4.0km/h7.9km/h0.0W/qm0.0W/qm0.0
1. Nov 2020 um 21:45 Uhr13.1°C13.1°C13.1°C99%1021.5hPa1021.5hPa0.0mm4.7km/h4.7km/h0.0W/qm0.0W/qm0.0
1. Nov 2020 um 21:50 Uhr13.1°C13.1°C13.1°C99%1021.5hPa1021.5hPa0.0mm4.7km/h7.9km/h0.0W/qm0.0W/qm0.0
1. Nov 2020 um 21:55 Uhr13.1°C13.1°C13.1°C99%1021.5hPa1021.4hPa0.0mm4.7km/h7.9km/h0.0W/qm0.0W/qm0.0
1. Nov 2020 um 22:00 Uhr13.1°C13.1°C13.1°C99%1021.4hPa1021.4hPa0.0mm4.7km/h7.9km/h0.0W/qm0.0W/qm0.0
1. Nov 2020 um 22:05 Uhr13.1°C13.1°C13.1°C99%1021.5hPa1021.4hPa0.0mm4.7km/h7.9km/h0.0W/qm0.0W/qm0.0
1. Nov 2020 um 22:10 Uhr13.1°C13.1°C13.1°C99%1021.5hPa1021.4hPa0.2mm4.7km/h7.9km/h0.0W/qm0.0W/qm0.0
1. Nov 2020 um 22:15 Uhr13.1°C13.1°C13.1°C99%1021.4hPa1021.3hPa0.0mm4.2km/h7.9km/h0.0W/qm0.0W/qm0.0
1. Nov 2020 um 22:20 Uhr13.1°C13.1°C13.1°C99%1021.5hPa1021.4hPa0.0mm3.2km/h6.5km/h0.0W/qm0.0W/qm0.0
1. Nov 2020 um 22:25 Uhr13.1°C13.2°C13.1°C99%1021.4hPa1021.4hPa0.0mm3.2km/h9.7km/h0.0W/qm0.0W/qm0.0
1. Nov 2020 um 22:30 Uhr13.2°C13.2°C13.2°C99%1021.4hPa1021.4hPa0.0mm3.2km/h7.9km/h0.0W/qm0.0W/qm0.0
1. Nov 2020 um 22:35 Uhr13.2°C13.2°C13.2°C99%1021.4hPa1021.3hPa0.0mm3.2km/h7.9km/h0.0W/qm0.0W/qm0.0
1. Nov 2020 um 22:40 Uhr13.2°C13.2°C13.2°C99%1021.4hPa1021.3hPa0.0mm3.2km/h6.5km/h0.0W/qm0.0W/qm0.0
1. Nov 2020 um 22:45 Uhr13.2°C13.2°C13.2°C99%1021.4hPa1021.4hPa0.0mm3.8km/h7.9km/h0.0W/qm0.0W/qm0.0
1. Nov 2020 um 22:50 Uhr13.2°C13.2°C13.2°C99%1021.4hPa1021.3hPa0.0mm3.4km/h4.7km/h0.0W/qm0.0W/qm0.0
1. Nov 2020 um 22:55 Uhr13.2°C13.2°C13.2°C99%1021.4hPa1021.3hPa0.0mm3.2km/h9.7km/h0.0W/qm0.0W/qm0.0
1. Nov 2020 um 23:00 Uhr13.2°C13.2°C13.2°C99%1021.4hPa1021.3hPa0.0mm4.1km/h13.0km/h0.0W/qm0.0W/qm0.0
1. Nov 2020 um 23:05 Uhr13.2°C13.2°C13.2°C99%1021.2hPa1021.2hPa0.0mm6.2km/h9.7km/h0.0W/qm0.0W/qm0.0
1. Nov 2020 um 23:10 Uhr13.2°C13.3°C13.2°C99%1021.2hPa1021.2hPa0.0mm6.5km/h13.0km/h0.0W/qm0.0W/qm0.0
1. Nov 2020 um 23:15 Uhr13.2°C13.3°C13.2°C99%1021.2hPa1021.2hPa0.0mm5.9km/h13.0km/h0.0W/qm0.0W/qm0.0
1. Nov 2020 um 23:20 Uhr13.3°C13.3°C13.3°C99%1021.2hPa1021.2hPa0.0mm6.5km/h7.9km/h0.0W/qm0.0W/qm0.0
1. Nov 2020 um 23:25 Uhr13.3°C13.3°C13.3°C99%1021.2hPa1021.1hPa0.0mm6.5km/h9.7km/h0.0W/qm0.0W/qm0.0
1. Nov 2020 um 23:30 Uhr13.3°C13.3°C13.3°C99%1021.2hPa1021.1hPa0.0mm6.5km/h9.7km/h0.0W/qm0.0W/qm0.0
1. Nov 2020 um 23:35 Uhr13.3°C13.3°C13.3°C99%1021.2hPa1021.1hPa0.0mm5.4km/h13.0km/h0.0W/qm0.0W/qm0.0
1. Nov 2020 um 23:40 Uhr13.3°C13.3°C13.3°C99%1021.1hPa1021.0hPa0.0mm6.5km/h9.7km/h0.0W/qm0.0W/qm0.0
1. Nov 2020 um 23:45 Uhr13.3°C13.4°C13.3°C99%1021.0hPa1021.0hPa0.0mm6.5km/h14.4km/h0.0W/qm0.0W/qm0.0
1. Nov 2020 um 23:50 Uhr13.4°C13.4°C13.4°C99%1021.1hPa1021.0hPa0.0mm7.1km/h17.6km/h0.0W/qm0.0W/qm0.0
1. Nov 2020 um 23:55 Uhr13.4°C13.5°C13.4°C99%1021.0hPa1021.0hPa0.0mm7.7km/h14.4km/h0.0W/qm0.0W/qm0.0
2. Nov 2020 um 00:00 Uhr13.6°C13.6°C13.5°C99%1021.1hPa1021.0hPa0.0mm6.5km/h11.2km/h0.0W/qm0.0W/qm0.0
2. Nov 2020 um 00:05 Uhr13.6°C13.6°C13.6°C99%1021.0hPa1021.0hPa0.0mm6.5km/h11.2km/h0.0W/qm0.0W/qm0.0
2. Nov 2020 um 00:10 Uhr13.7°C13.7°C13.6°C98%1021.0hPa1021.0hPa0.0mm7.0km/h13.0km/h0.0W/qm0.0W/qm0.0
2. Nov 2020 um 00:15 Uhr13.7°C13.7°C13.7°C98%1021.0hPa1021.0hPa0.0mm6.5km/h11.2km/h0.0W/qm0.0W/qm0.0
2. Nov 2020 um 00:20 Uhr13.8°C13.8°C13.7°C98%1021.0hPa1020.9hPa0.0mm6.5km/h13.0km/h0.0W/qm0.0W/qm0.0
2. Nov 2020 um 00:25 Uhr13.8°C13.9°C13.8°C98%1021.0hPa1020.9hPa0.0mm6.5km/h14.4km/h0.0W/qm0.0W/qm0.0
2. Nov 2020 um 00:30 Uhr13.9°C13.9°C13.9°C98%1021.0hPa1021.0hPa0.0mm6.5km/h7.9km/h0.0W/qm0.0W/qm0.0
2. Nov 2020 um 00:35 Uhr13.9°C13.9°C13.9°C97%1021.0hPa1021.0hPa0.0mm6.5km/h14.4km/h0.0W/qm0.0W/qm0.0
2. Nov 2020 um 00:40 Uhr14.0°C14.0°C14.0°C97%1021.0hPa1021.0hPa0.0mm6.5km/h7.9km/h0.0W/qm0.0W/qm0.0
2. Nov 2020 um 00:45 Uhr14.1°C14.1°C14.0°C97%1021.0hPa1021.0hPa0.0mm6.2km/h7.9km/h0.0W/qm0.0W/qm0.0
2. Nov 2020 um 00:50 Uhr14.1°C14.1°C14.0°C97%1021.0hPa1020.9hPa0.0mm4.7km/h11.2km/h0.0W/qm0.0W/qm0.0
2. Nov 2020 um 00:55 Uhr14.0°C14.1°C14.0°C97%1021.0hPa1021.0hPa0.2mm4.7km/h11.2km/h0.0W/qm0.0W/qm0.0
2. Nov 2020 um 01:00 Uhr14.0°C14.0°C14.0°C97%1021.0hPa1020.9hPa0.0mm3.8km/h3.2km/h0.0W/qm0.0W/qm0.0
2. Nov 2020 um 01:05 Uhr14.0°C14.0°C13.9°C96%1021.0hPa1020.9hPa0.0mm2.7km/h6.5km/h0.0W/qm0.0W/qm0.0
2. Nov 2020 um 01:10 Uhr13.9°C13.9°C13.9°C96%1021.0hPa1020.9hPa0.0mm1.9km/h6.5km/h0.0W/qm0.0W/qm0.0
2. Nov 2020 um 01:15 Uhr13.9°C13.9°C13.9°C96%1020.9hPa1020.8hPa0.0mm1.8km/h6.5km/h0.0W/qm0.0W/qm0.0
2. Nov 2020 um 01:20 Uhr13.9°C13.9°C13.9°C96%1020.8hPa1020.8hPa0.0mm1.4km/h4.7km/h0.0W/qm0.0W/qm0.0
2. Nov 2020 um 01:25 Uhr13.9°C13.9°C13.8°C96%1020.8hPa1020.8hPa0.0mm1.4km/h1.4km/h0.0W/qm0.0W/qm0.0
2. Nov 2020 um 01:30 Uhr13.8°C13.9°C13.8°C96%1020.8hPa1020.7hPa0.0mm1.4km/h4.7km/h0.0W/qm0.0W/qm0.0
2. Nov 2020 um 01:35 Uhr13.8°C13.8°C13.8°C96%1020.7hPa1020.7hPa0.0mm1.4km/h4.7km/h0.0W/qm0.0W/qm0.0
2. Nov 2020 um 01:40 Uhr13.8°C13.8°C13.8°C96%1020.8hPa1020.7hPa0.0mm1.4km/h3.2km/h0.0W/qm0.0W/qm0.0
2. Nov 2020 um 01:45 Uhr13.8°C13.8°C13.8°C96%1020.8hPa1020.7hPa0.0mm1.4km/h1.4km/h0.0W/qm0.0W/qm0.0
2. Nov 2020 um 01:50 Uhr13.8°C13.8°C13.8°C96%1020.7hPa1020.7hPa0.0mm0.0km/h1.4km/h0.0W/qm0.0W/qm0.0
2. Nov 2020 um 01:55 Uhr13.8°C13.8°C13.8°C96%1020.7hPa1020.7hPa0.0mm0.3km/h4.7km/h0.0W/qm0.0W/qm0.0
2. Nov 2020 um 02:00 Uhr13.8°C13.8°C13.7°C96%1020.8hPa1020.7hPa0.0mm1.4km/h3.2km/h0.0W/qm0.0W/qm0.0
2. Nov 2020 um 02:05 Uhr13.7°C13.7°C13.7°C96%1020.8hPa1020.8hPa0.0mm1.4km/h4.7km/h0.0W/qm0.0W/qm0.0
2. Nov 2020 um 02:10 Uhr13.8°C13.8°C13.7°C96%1020.8hPa1020.7hPa0.0mm1.4km/h1.4km/h0.0W/qm0.0W/qm0.0
2. Nov 2020 um 02:15 Uhr13.8°C13.8°C13.8°C96%1020.8hPa1020.8hPa0.0mm1.4km/h4.7km/h0.0W/qm0.0W/qm0.0
2. Nov 2020 um 02:20 Uhr13.8°C13.8°C13.8°C96%1020.8hPa1020.8hPa0.0mm0.4km/h0.0km/h0.0W/qm0.0W/qm0.0
2. Nov 2020 um 02:25 Uhr13.8°C13.8°C13.8°C96%1020.8hPa1020.7hPa0.0mm0.0km/h0.0km/h0.0W/qm0.0W/qm0.0
2. Nov 2020 um 02:30 Uhr13.8°C13.8°C13.8°C96%1020.8hPa1020.7hPa0.0mm0.0km/h1.4km/h0.0W/qm0.0W/qm0.0
2. Nov 2020 um 02:35 Uhr13.8°C13.8°C13.8°C96%1020.8hPa1020.7hPa0.0mm0.0km/h0.0km/h0.0W/qm0.0W/qm0.0
2. Nov 2020 um 02:40 Uhr13.8°C13.8°C13.7°C96%1020.7hPa1020.7hPa0.0mm0.0km/h0.0km/h0.0W/qm0.0W/qm0.0
2. Nov 2020 um 02:45 Uhr13.8°C13.8°C13.7°C96%1020.7hPa1020.6hPa0.0mm0.0km/h0.0km/h0.0W/qm0.0W/qm0.0
2. Nov 2020 um 02:50 Uhr13.7°C13.8°C13.7°C96%1020.7hPa1020.7hPa0.0mm0.0km/h0.0km/h0.0W/qm